Time;durP1;ratioP1;P1;durP2;ratioP2;P2;SDS_P1;SDS_P2;PMS_P1;PMS_P2;Temp;Humidity;BMP_temperature;BMP_pressure;BME280_temperature;BME280_humidity;BME280_pressure;Samples;Min_cycle;Max_cycle;Signal;HPM_P1;HPM_P2
2022/05/07 00:01:51;;;;;;;;;;;12.50;99.90;;;;;;5054083;28;19936;-71
2022/05/07 00:04:16;;;;;;;;;;;12.50;99.90;;;;;;5054099;28;19925;-70
2022/05/07 00:06:42;;;;;;;;;;;12.50;99.90;;;;;;5053086;28;19925;-69
2022/05/07 00:09:07;;;;;;;;;;;12.50;99.90;;;;;;5053800;28;20399;-71
2022/05/07 00:11:33;;;;;;;;;;;12.50;99.90;;;;;;5052998;28;20372;-70
2022/05/07 00:13:59;;;;;;;;;;;12.50;99.90;;;;;;5053917;28;19931;-69
2022/05/07 00:19:08;;;;;;;;;;;12.50;99.90;;;;;;5053729;28;19932;-69
2022/05/07 00:21:34;;;;;;;;;;;12.50;99.90;;;;;;5053684;28;19925;-71
2022/05/07 00:24:02;;;;;;;;;;;12.50;99.90;;;;;;5036072;28;20003;-73
2022/05/07 00:26:27;;;;;;;;;;;12.40;99.90;;;;;;5053888;28;19925;-70
2022/05/07 00:28:54;;;;;;;;;;;12.50;99.90;;;;;;5053723;28;19931;-70
2022/05/07 00:31:20;;;;;;;;;;;12.40;99.90;;;;;;5053715;28;19979;-70
2022/05/07 00:33:46;;;;;;;;;;;12.50;99.90;;;;;;5053656;28;19928;-69
2022/05/07 00:36:11;;;;;;;;;;;12.40;99.90;;;;;;5053539;28;19925;-73
2022/05/07 00:38:37;;;;;;;;;;;12.50;99.90;;;;;;5053556;28;20276;-71
2022/05/07 00:41:03;;;;;;;;;;;12.50;99.90;;;;;;5053502;28;20007;-72
2022/05/07 00:43:35;;;;;;;;;;;12.50;99.90;;;;;;5053584;28;19926;-72
2022/05/07 00:46:01;;;;;;;;;;;12.50;99.90;;;;;;5053886;28;19929;-70
2022/05/07 00:48:26;;;;;;;;;;;12.50;99.90;;;;;;5053480;28;19932;-72
2022/05/07 00:53:36;;;;;;;;;;;12.50;99.90;;;;;;5053496;28;19931;-70
2022/05/07 00:56:03;;;;;;;;;;;12.50;99.90;;;;;;5053556;28;19938;-69
2022/05/07 00:58:28;;;;;;;;;;;12.50;99.90;;;;;;5052087;28;20334;-68
2022/05/07 01:00:54;;;;;;;;;;;12.60;99.90;;;;;;5053385;28;19925;-71
2022/05/07 01:03:20;;;;;;;;;;;12.60;99.90;;;;;;5053355;28;20403;-70
2022/05/07 01:05:45;;;;;;;;;;;12.60;99.90;;;;;;5085852;28;20062;-70
2022/05/07 01:08:12;;;;;;;;;;;12.60;99.90;;;;;;5053412;28;19932;-72
2022/05/07 01:10:38;;;;;;;;;;;12.50;99.90;;;;;;5053351;28;19925;-70
2022/05/07 01:13:04;;;;;;;;;;;12.60;99.90;;;;;;5052175;28;19931;-70
2022/05/07 01:15:30;;;;;;;;;;;12.50;99.90;;;;;;5053035;28;19956;-72
2022/05/07 01:17:56;;;;;;;;;;;12.50;99.90;;;;;;5053074;28;20356;-70
2022/05/07 01:20:22;;;;;;;;;;;12.60;99.90;;;;;;5053131;28;19979;-73
2022/05/07 01:22:47;;;;;;;;;;;12.50;99.90;;;;;;5053218;28;19925;-73
2022/05/07 01:25:13;;;;;;;;;;;12.50;99.90;;;;;;5053059;28;19967;-72
2022/05/07 01:27:39;;;;;;;;;;;12.50;99.90;;;;;;5053045;28;19925;-69
2022/05/07 01:30:04;;;;;;;;;;;12.50;99.90;;;;;;5051694;28;19931;-69
2022/05/07 01:32:31;;;;;;;;;;;12.60;99.90;;;;;;5051801;28;19931;-71
2022/05/07 01:34:56;;;;;;;;;;;12.50;99.90;;;;;;5052736;28;20012;-69
2022/05/07 01:37:22;;;;;;;;;;;12.00;99.90;;;;;;5052629;28;20380;-70
2022/05/07 01:39:47;;;;;;;;;;;12.50;99.90;;;;;;5052989;28;19948;-69
2022/05/07 01:42:13;;;;;;;;;;;12.30;99.90;;;;;;5052751;28;20284;-70
2022/05/07 01:44:39;;;;;;;;;;;13.10;99.90;;;;;;5056378;28;19925;-69
2022/05/07 01:49:49;;;;;;;;;;;12.50;99.90;;;;;;5056219;28;19932;-69
2022/05/07 01:52:15;;;;;;;;;;;12.50;99.90;;;;;;5056407;28;19925;-73
2022/05/07 01:54:41;;;;;;;;;;;12.50;99.90;;;;;;5056076;28;20406;-69
2022/05/07 01:57:07;;;;;;;;;;;12.60;99.90;;;;;;5056260;28;19932;-69
2022/05/07 01:59:33;;;;;;;;;;;12.50;99.90;;;;;;5056020;28;19931;-69
2022/05/07 02:01:58;;;;;;;;;;;12.50;99.90;;;;;;5056127;28;19925;-72
2022/05/07 02:04:24;;;;;;;;;;;12.40;99.90;;;;;;5055995;28;19932;-71
2022/05/07 02:06:49;;;;;;;;;;;12.00;99.90;;;;;;5055943;28;19925;-71
2022/05/07 02:09:15;;;;;;;;;;;12.50;99.90;;;;;;5055986;28;19970;-69
2022/05/07 02:11:41;;;;;;;;;;;12.50;99.90;;;;;;5054668;28;19929;-70
2022/05/07 02:14:06;;;;;;;;;;;12.50;99.90;;;;;;5055752;28;19931;-70
2022/05/07 02:16:33;;;;;;;;;;;12.50;99.90;;;;;;5055069;28;20535;-70
2022/05/07 02:18:59;;;;;;;;;;;12.50;99.90;;;;;;5054725;28;19975;-70
2022/05/07 02:21:25;;;;;;;;;;;12.50;99.90;;;;;;5088217;28;19931;-70
2022/05/07 02:23:50;;;;;;;;;;;12.50;99.90;;;;;;5055736;28;19924;-72
2022/05/07 02:26:16;;;;;;;;;;;12.50;99.90;;;;;;5055818;28;19924;-70
2022/05/07 02:28:41;;;;;;;;;;;12.40;99.90;;;;;;5055492;28;20334;-72
2022/05/07 02:31:07;;;;;;;;;;;12.40;99.90;;;;;;5055627;28;19932;-72
2022/05/07 02:33:33;;;;;;;;;;;12.40;99.90;;;;;;5055457;28;19925;-69
2022/05/07 02:35:58;;;;;;;;;;;12.40;99.90;;;;;;5054413;28;19928;-69
2022/05/07 02:38:24;;;;;;;;;;;12.40;99.90;;;;;;5054538;28;19929;-70
2022/05/07 02:43:33;;;;;;;;;;;12.40;99.90;;;;;;5055308;28;20490;-69
2022/05/07 02:45:59;;;;;;;;;;;12.40;99.90;;;;;;5055259;28;19971;-69
2022/05/07 02:48:25;;;;;;;;;;;12.40;99.90;;;;;;5054010;28;19925;-69
2022/05/07 02:50:50;;;;;;;;;;;12.40;99.90;;;;;;5055091;28;19925;-70
2022/05/07 02:53:16;;;;;;;;;;;12.40;99.90;;;;;;5053660;28;20340;-72
2022/05/07 02:55:41;;;;;;;;;;;12.40;99.90;;;;;;5054634;28;19931;-70
2022/05/07 02:58:08;;;;;;;;;;;12.40;99.90;;;;;;5055179;28;19931;-69
2022/05/07 03:00:34;;;;;;;;;;;12.40;99.90;;;;;;5054784;28;20388;-69
2022/05/07 03:02:59;;;;;;;;;;;12.40;99.90;;;;;;5054929;28;19931;-70
2022/05/07 03:05:25;;;;;;;;;;;12.40;99.90;;;;;;5053860;28;19979;-71
2022/05/07 03:07:50;;;;;;;;;;;12.30;99.90;;;;;;5054932;28;19970;-69
2022/05/07 03:10:16;;;;;;;;;;;12.40;99.90;;;;;;5054948;28;19975;-69
2022/05/07 03:12:42;;;;;;;;;;;12.40;99.90;;;;;;5054838;28;19932;-69
2022/05/07 03:15:08;;;;;;;;;;;12.40;99.90;;;;;;5054613;28;19999;-70
2022/05/07 03:17:34;;;;;;;;;;;12.40;99.90;;;;;;5053679;28;19924;-73
2022/05/07 03:20:00;;;;;;;;;;;12.50;99.90;;;;;;5054502;28;19929;-70
2022/05/07 03:22:26;;;;;;;;;;;12.40;99.90;;;;;;5054680;28;19932;-71
2022/05/07 03:24:51;;;;;;;;;;;12.40;99.90;;;;;;5054668;28;19928;-70
2022/05/07 03:27:17;;;;;;;;;;;12.40;99.90;;;;;;5054525;28;19925;-70
2022/05/07 03:29:42;;;;;;;;;;;12.40;99.90;;;;;;5054306;28;19924;-69
2022/05/07 03:32:09;;;;;;;;;;;12.40;99.90;;;;;;5054282;28;20296;-69
2022/05/07 03:34:35;;;;;;;;;;;12.40;99.90;;;;;;5052925;28;20395;-73
2022/05/07 03:37:00;;;;;;;;;;;12.40;99.90;;;;;;5054350;28;19929;-70
2022/05/07 03:39:26;;;;;;;;;;;12.60;99.90;;;;;;5053736;28;19964;-70
2022/05/07 03:41:51;;;;;;;;;;;12.40;99.90;;;;;;5053654;28;20019;-70
2022/05/07 03:44:17;;;;;;;;;;;12.40;99.90;;;;;;5054484;28;19947;-71
2022/05/07 03:46:43;;;;;;;;;;;12.40;99.90;;;;;;5053429;28;19935;-70
2022/05/07 03:49:09;;;;;;;;;;;12.40;99.90;;;;;;5054261;28;19924;-71
2022/05/07 03:53:29;;;;;;;;;;;12.40;99.90;;;;;;5054204;28;19925;-70
2022/05/07 03:54:20;;;;;;;;;;;12.40;99.90;;;;;;5054322;28;19925;-72
2022/05/07 03:56:46;;;;;;;;;;;12.40;99.90;;;;;;5054293;28;19987;-70
2022/05/07 03:59:11;;;;;;;;;;;12.40;99.90;;;;;;5054125;28;19929;-70
2022/05/07 04:01:37;;;;;;;;;;;12.30;99.90;;;;;;5054174;28;19932;-69
2022/05/07 04:04:02;;;;;;;;;;;12.40;99.90;;;;;;5054096;28;19925;-72
2022/05/07 04:06:28;;;;;;;;;;;12.40;99.90;;;;;;5053656;28;19925;-70
2022/05/07 04:08:54;;;;;;;;;;;12.40;99.90;;;;;;5053783;28;20391;-73
2022/05/07 04:11:19;;;;;;;;;;;12.40;99.90;;;;;;5053120;28;19932;-72
2022/05/07 04:13:45;;;;;;;;;;;12.20;99.90;;;;;;5053933;28;19932;-71
2022/05/07 04:16:10;;;;;;;;;;;12.40;99.90;;;;;;5054080;28;19932;-69
2022/05/07 04:18:36;;;;;;;;;;;12.40;99.90;;;;;;5053783;28;20477;-69
2022/05/07 04:21:01;;;;;;;;;;;12.40;99.90;;;;;;5053785;28;19976;-70
2022/05/07 04:23:27;;;;;;;;;;;12.40;99.90;;;;;;5053869;28;19925;-73
2022/05/07 04:25:52;;;;;;;;;;;12.50;99.90;;;;;;5053896;28;20287;-69
2022/05/07 04:28:18;;;;;;;;;;;12.40;99.90;;;;;;5053744;28;19947;-70
2022/05/07 04:30:44;;;;;;;;;;;12.50;99.90;;;;;;5053619;28;20350;-73
2022/05/07 04:33:09;;;;;;;;;;;12.50;99.90;;;;;;5053661;28;19925;-73
2022/05/07 04:35:35;;;;;;;;;;;12.50;99.90;;;;;;5053615;28;19975;-71
2022/05/07 04:38:00;;;;;;;;;;;12.50;99.90;;;;;;5053521;28;19929;-70
2022/05/07 04:40:26;;;;;;;;;;;12.50;99.90;;;;;;5053718;28;19924;-71
2022/05/07 04:42:52;;;;;;;;;;;12.50;99.90;;;;;;5053704;28;19929;-70
2022/05/07 04:45:18;;;;;;;;;;;12.60;99.90;;;;;;5053524;28;19931;-69
2022/05/07 04:47:43;;;;;;;;;;;12.50;99.90;;;;;;5053405;28;19932;-70
2022/05/07 04:50:09;;;;;;;;;;;12.50;99.90;;;;;;5053432;28;19925;-70
2022/05/07 04:52:36;;;;;;;;;;;12.50;99.90;;;;;;5053369;28;19931;-70
2022/05/07 04:55:02;;;;;;;;;;;12.60;99.90;;;;;;5053667;28;19925;-70
2022/05/07 04:57:28;;;;;;;;;;;12.50;99.90;;;;;;5053303;28;19992;-70
2022/05/07 04:59:54;;;;;;;;;;;12.60;99.90;;;;;;5053267;28;19931;-70
2022/05/07 05:02:20;;;;;;;;;;;12.70;99.90;;;;;;5053448;28;20354;-70
2022/05/07 05:04:45;;;;;;;;;;;12.60;99.90;;;;;;5052467;28;19925;-70
2022/05/07 05:07:11;;;;;;;;;;;12.50;99.90;;;;;;5053269;28;19987;-72
2022/05/07 05:09:36;;;;;;;;;;;12.50;99.90;;;;;;5053506;28;19925;-69
2022/05/07 05:12:02;;;;;;;;;;;12.50;99.90;;;;;;5052345;28;20023;-70
2022/05/07 05:17:12;;;;;;;;;;;12.60;99.90;;;;;;5054006;28;20019;-68
2022/05/07 05:19:38;;;;;;;;;;;12.60;99.90;;;;;;5057013;28;19968;-69
2022/05/07 05:22:03;;;;;;;;;;;13.20;99.90;;;;;;5056985;28;19931;-70
2022/05/07 05:24:29;;;;;;;;;;;12.60;99.90;;;;;;5057199;28;20372;-70
2022/05/07 05:26:54;;;;;;;;;;;12.70;99.90;;;;;;5056257;28;19925;-68
2022/05/07 05:29:20;;;;;;;;;;;12.70;99.90;;;;;;5057064;28;20330;-72
2022/05/07 05:31:46;;;;;;;;;;;12.70;99.90;;;;;;5056946;28;19925;-69
2022/05/07 05:34:11;;;;;;;;;;;12.80;99.90;;;;;;5055633;28;19951;-70
2022/05/07 05:36:37;;;;;;;;;;;12.80;99.90;;;;;;5056810;28;20399;-69
2022/05/07 05:39:05;;;;;;;;;;;12.80;99.90;;;;;;5039238;28;19925;-71
2022/05/07 05:41:30;;;;;;;;;;;12.90;99.90;;;;;;5056039;28;19932;-70
2022/05/07 05:43:56;;;;;;;;;;;12.90;99.90;;;;;;5056725;28;19929;-70
2022/05/07 05:46:21;;;;;;;;;;;12.90;99.90;;;;;;5056649;28;20291;-69
2022/05/07 05:48:47;;;;;;;;;;;12.90;99.90;;;;;;5038636;28;20270;-69
2022/05/07 05:51:12;;;;;;;;;;;12.90;99.90;;;;;;5056558;28;20403;-69
2022/05/07 05:53:38;;;;;;;;;;;12.90;99.90;;;;;;5056431;28;19948;-69
2022/05/07 05:56:04;;;;;;;;;;;12.90;99.90;;;;;;5056688;28;19925;-70
2022/05/07 05:58:33;;;;;;;;;;;13.00;99.90;;;;;;5056552;28;19925;-69
2022/05/07 06:00:59;;;;;;;;;;;13.00;99.90;;;;;;5056384;28;19978;-70
2022/05/07 06:03:25;;;;;;;;;;;13.10;99.90;;;;;;5056480;28;19925;-72
2022/05/07 06:05:51;;;;;;;;;;;13.10;99.90;;;;;;5055130;28;20021;-69
2022/05/07 06:08:16;;;;;;;;;;;13.10;99.90;;;;;;5056074;28;19975;-70
2022/05/07 06:10:42;;;;;;;;;;;13.20;99.90;;;;;;5056355;28;19931;-70
2022/05/07 06:13:07;;;;;;;;;;;13.10;99.90;;;;;;5056321;28;20372;-69
2022/05/07 06:15:33;;;;;;;;;;;13.20;99.90;;;;;;5054931;28;20375;-70
2022/05/07 06:17:58;;;;;;;;;;;13.20;99.90;;;;;;5056082;28;19925;-73
2022/05/07 06:20:24;;;;;;;;;;;13.20;99.90;;;;;;5056002;28;19925;-71
2022/05/07 06:22:49;;;;;;;;;;;13.20;99.90;;;;;;5054790;28;20437;-70
2022/05/07 06:28:01;;;;;;;;;;;13.30;99.90;;;;;;5055802;28;19970;-71
2022/05/07 06:30:26;;;;;;;;;;;13.30;99.90;;;;;;5055813;28;19948;-70
2022/05/07 06:32:52;;;;;;;;;;;13.30;99.90;;;;;;5054609;28;20372;-69
2022/05/07 06:35:17;;;;;;;;;;;13.40;99.90;;;;;;5055634;28;19925;-69
2022/05/07 06:37:48;;;;;;;;;;;13.40;99.90;;;;;;5054730;28;19929;-70
2022/05/07 06:40:14;;;;;;;;;;;13.40;99.90;;;;;;5055734;28;19982;-70
2022/05/07 06:42:40;;;;;;;;;;;13.50;99.90;;;;;;5038091;28;19972;-71
2022/05/07 06:45:05;;;;;;;;;;;13.80;99.90;;;;;;5055627;28;19924;-69
2022/05/07 06:47:32;;;;;;;;;;;13.60;99.90;;;;;;5055473;28;19929;-68
2022/05/07 06:49:57;;;;;;;;;;;13.60;99.90;;;;;;5055406;28;20030;-69
2022/05/07 06:52:23;;;;;;;;;;;13.60;99.90;;;;;;5055373;28;20053;-70
2022/05/07 06:54:48;;;;;;;;;;;13.60;99.90;;;;;;5054181;28;19939;-70
2022/05/07 06:57:14;;;;;;;;;;;13.70;99.90;;;;;;5054270;28;19924;-70
2022/05/07 06:59:39;;;;;;;;;;;13.70;99.90;;;;;;5087848;28;19925;-71
2022/05/07 07:02:05;;;;;;;;;;;13.80;99.90;;;;;;5055246;28;19931;-69
2022/05/07 07:04:31;;;;;;;;;;;13.80;99.90;;;;;;5054990;28;20265;-69
2022/05/07 07:06:57;;;;;;;;;;;13.80;99.90;;;;;;5037284;28;20273;-70
2022/05/07 07:09:22;;;;;;;;;;;13.90;99.90;;;;;;5055130;28;20003;-72
2022/05/07 07:11:48;;;;;;;;;;;13.90;99.90;;;;;;5054004;28;19932;-70
2022/05/07 07:14:13;;;;;;;;;;;13.70;99.90;;;;;;5054997;28;19924;-69
2022/05/07 07:16:39;;;;;;;;;;;13.90;99.90;;;;;;5053411;28;19978;-69
2022/05/07 07:19:04;;;;;;;;;;;14.00;99.90;;;;;;5054848;28;20007;-69
2022/05/07 07:21:30;;;;;;;;;;;14.10;99.90;;;;;;5053684;28;19963;-70
2022/05/07 07:23:56;;;;;;;;;;;14.10;99.90;;;;;;5054829;28;19924;-71
2022/05/07 07:26:21;;;;;;;;;;;14.20;99.90;;;;;;5054810;28;19974;-71
2022/05/07 07:28:47;;;;;;;;;;;14.20;99.90;;;;;;5053462;28;20015;-70
2022/05/07 07:31:13;;;;;;;;;;;14.30;99.90;;;;;;5053737;28;19994;-70
2022/05/07 07:33:38;;;;;;;;;;;14.30;99.90;;;;;;5053715;28;20337;-69
2022/05/07 07:36:08;;;;;;;;;;;14.30;99.90;;;;;;5054525;28;19925;-71
2022/05/07 07:38:35;;;;;;;;;;;14.40;99.90;;;;;;5054400;28;19925;-69
2022/05/07 07:41:01;;;;;;;;;;;14.40;99.90;;;;;;5054069;28;20335;-73
2022/05/07 07:43:26;;;;;;;;;;;14.40;99.90;;;;;;5053573;28;19932;-70
2022/05/07 07:48:36;;;;;;;;;;;14.40;99.90;;;;;;5054197;28;19950;-69
2022/05/07 07:51:01;;;;;;;;;;;14.60;99.90;;;;;;5053217;28;20031;-68
2022/05/07 07:53:27;;;;;;;;;;;14.50;99.90;;;;;;5054299;28;19994;-69
2022/05/07 07:55:53;;;;;;;;;;;14.50;99.90;;;;;;5053428;28;20398;-70
2022/05/07 07:58:18;;;;;;;;;;;14.50;99.90;;;;;;5054159;28;19924;-70
2022/05/07 08:00:44;;;;;;;;;;;14.50;99.90;;;;;;5054176;28;19925;-70
2022/05/07 08:03:12;;;;;;;;;;;14.60;99.90;;;;;;5054067;28;19925;-69
2022/05/07 08:05:37;;;;;;;;;;;14.60;99.90;;;;;;5054098;28;19932;-71
2022/05/07 08:13:33;;;;;;;;;;;14.00;99.90;;;;;;5054024;28;19936;-69
2022/05/07 08:16:00;;;;;;;;;;;15.10;99.90;;;;;;5052611;28;20004;-70
2022/05/07 08:18:25;;;;;;;;;;;15.00;99.90;;;;;;5053644;28;20348;-72
2022/05/07 08:20:51;;;;;;;;;;;15.10;99.90;;;;;;5052978;28;19925;-70
2022/05/07 08:23:16;;;;;;;;;;;15.10;99.90;;;;;;5053832;28;19929;-70
2022/05/07 08:25:42;;;;;;;;;;;15.20;99.90;;;;;;5053801;28;19925;-69
2022/05/07 08:28:07;;;;;;;;;;;15.20;99.90;;;;;;5053602;28;20394;-72
2022/05/07 08:30:33;;;;;;;;;;;15.20;99.90;;;;;;5053666;28;20423;-70
2022/05/07 08:32:59;;;;;;;;;;;15.30;99.90;;;;;;5053581;28;19978;-70
2022/05/07 08:35:24;;;;;;;;;;;15.30;99.90;;;;;;5053511;28;19931;-70
2022/05/07 08:37:50;;;;;;;;;;;15.30;99.90;;;;;;5053765;28;20351;-72
2022/05/07 08:40:17;;;;;;;;;;;15.40;99.90;;;;;;5053641;28;19925;-71
2022/05/07 08:42:43;;;;;;;;;;;15.40;99.90;;;;;;5053692;28;20015;-70
2022/05/07 08:45:09;;;;;;;;;;;15.50;99.90;;;;;;5053439;28;19980;-70
2022/05/07 08:47:35;;;;;;;;;;;15.50;99.90;;;;;;5053473;28;20272;-70
2022/05/07 08:50:00;;;;;;;;;;;15.60;99.90;;;;;;5053261;28;19929;-72
2022/05/07 08:52:29;;;;;;;;;;;15.60;99.90;;;;;;5054846;28;20020;-69
2022/05/07 08:54:57;;;;;;;;;;;15.60;99.90;;;;;;5057486;28;19925;-69
2022/05/07 08:57:23;;;;;;;;;;;15.70;99.90;;;;;;5057549;28;20070;-72
2022/05/07 08:59:50;;;;;;;;;;;15.80;99.90;;;;;;5056497;28;20007;-72
2022/05/07 09:02:16;;;;;;;;;;;17.00;99.90;;;;;;5056125;28;20023;-70
2022/05/07 09:04:52;;;;;;;;;;;16.00;99.90;;;;;;5056365;28;20041;-69
2022/05/07 09:07:18;;;;;;;;;;;16.00;99.90;;;;;;5057511;28;20023;-70
2022/05/07 09:09:50;;;;;;;;;;;16.00;99.90;;;;;;5056232;28;20008;-70
2022/05/07 09:12:23;;;;;;;;;;;16.10;99.90;;;;;;5057195;28;20445;-70
2022/05/07 09:14:48;;;;;;;;;;;16.00;99.90;;;;;;5057144;28;19932;-69
2022/05/07 09:17:14;;;;;;;;;;;16.00;99.90;;;;;;5056702;28;19924;-70
2022/05/07 09:19:40;;;;;;;;;;;16.00;99.90;;;;;;5057254;28;19976;-69
2022/05/07 09:22:09;;;;;;;;;;;16.10;99.90;;;;;;5056259;28;19947;-68
2022/05/07 09:24:37;;;;;;;;;;;16.10;99.90;;;;;;5056540;28;19925;-70
2022/05/07 09:27:04;;;;;;;;;;;16.10;99.90;;;;;;5056526;28;20307;-69
2022/05/07 09:29:31;;;;;;;;;;;16.10;99.90;;;;;;5056649;28;19971;-73
2022/05/07 09:32:06;;;;;;;;;;;16.20;99.90;;;;;;5056696;28;20027;-69
2022/05/07 09:37:17;;;;;;;;;;;16.30;99.90;;;;;;5056741;28;19931;-73
2022/05/07 09:39:47;;;;;;;;;;;16.30;99.90;;;;;;5056609;28;20327;-70
2022/05/07 09:42:16;;;;;;;;;;;16.30;99.90;;;;;;5056462;28;19968;-72
2022/05/07 09:44:42;;;;;;;;;;;16.40;99.90;;;;;;5056589;28;20015;-71
2022/05/07 09:47:11;;;;;;;;;;;16.40;99.90;;;;;;5056635;28;19970;-70
2022/05/07 09:49:37;;;;;;;;;;;16.50;99.90;;;;;;5056520;28;20450;-70
2022/05/07 09:52:03;;;;;;;;;;;16.50;99.90;;;;;;5055484;28;19976;-70
2022/05/07 09:57:30;;;;;;;;;;;16.60;99.90;;;;;;5056058;28;20425;-72
2022/05/07 10:00:00;;;;;;;;;;;16.70;99.90;;;;;;5056017;28;19925;-73
2022/05/07 10:02:45;;;;;;;;;;;16.70;99.90;;;;;;5053772;28;19925;-74
2022/05/07 10:05:13;;;;;;;;;;;16.70;99.90;;;;;;5054283;28;19925;-70
2022/05/07 10:07:52;;;;;;;;;;;16.70;99.90;;;;;;5050636;28;19929;-71
2022/05/07 10:10:21;;;;;;;;;;;16.70;99.90;;;;;;5051215;28;19924;-70
2022/05/07 10:12:47;;;;;;;;;;;16.70;99.90;;;;;;5056124;28;20008;-70
2022/05/07 10:15:20;;;;;;;;;;;16.70;99.90;;;;;;5038990;28;19960;-69
2022/05/07 10:17:56;;;;;;;;;;;16.70;99.90;;;;;;5035931;28;20003;-70
2022/05/07 10:20:23;;;;;;;;;;;16.70;99.90;;;;;;5036260;28;19931;-69
2022/05/07 10:22:56;;;;;;;;;;;16.60;99.90;;;;;;5035973;28;19925;-73
2022/05/07 10:25:22;;;;;;;;;;;16.70;99.90;;;;;;5035666;28;19936;-71
2022/05/07 10:27:49;;;;;;;;;;;16.60;99.90;;;;;;5035636;28;19925;-74
2022/05/07 10:30:16;;;;;;;;;;;16.60;99.90;;;;;;5035654;28;20414;-70
2022/05/07 10:32:46;;;;;;;;;;;16.60;99.90;;;;;;5034695;28;19925;-70
2022/05/07 10:35:12;;;;;;;;;;;16.60;99.90;;;;;;5035786;28;19926;-70
2022/05/07 10:37:41;;;;;;;;;;;16.60;99.90;;;;;;5035816;28;19932;-69
2022/05/07 10:40:10;;;;;;;;;;;16.60;99.90;;;;;;5034478;28;19925;-70
2022/05/07 10:42:39;;;;;;;;;;;16.60;99.90;;;;;;5035447;28;19925;-70
2022/05/07 10:45:20;;;;;;;;;;;16.70;99.90;;;;;;5039198;28;20300;-73
2022/05/07 10:47:55;;;;;;;;;;;16.70;99.90;;;;;;5035269;28;20439;-70
2022/05/07 10:50:23;;;;;;;;;;;16.80;99.90;;;;;;5048930;28;20296;-71
2022/05/07 10:52:56;;;;;;;;;;;16.90;99.90;;;;;;5049071;28;19924;-69
2022/05/07 10:55:25;;;;;;;;;;;16.80;99.90;;;;;;5035125;28;20019;-71
2022/05/07 10:57:52;;;;;;;;;;;16.80;99.90;;;;;;5035079;28;19925;-69
2022/05/07 11:00:18;;;;;;;;;;;16.90;99.90;;;;;;5034025;28;19925;-69
2022/05/07 11:02:45;;;;;;;;;;;16.90;99.90;;;;;;5034110;28;20377;-71
2022/05/07 11:05:14;;;;;;;;;;;16.90;99.90;;;;;;5034175;28;19925;-68
2022/05/07 11:07:40;;;;;;;;;;;16.80;99.90;;;;;;5035122;28;20072;-68
2022/05/07 11:10:07;;;;;;;;;;;16.90;99.90;;;;;;5034933;28;20012;-69
2022/05/07 11:12:35;;;;;;;;;;;17.00;99.90;;;;;;5034910;28;19928;-73
2022/05/07 11:15:04;;;;;;;;;;;17.00;99.90;;;;;;5034162;28;19936;-69
2022/05/07 11:17:31;;;;;;;;;;;17.00;99.90;;;;;;5034951;28;19976;-69
2022/05/07 11:19:57;;;;;;;;;;;17.00;99.90;;;;;;5034683;28;20389;-68
2022/05/07 11:22:31;;;;;;;;;;;17.10;99.90;;;;;;5034588;28;19936;-72
2022/05/07 11:24:58;;;;;;;;;;;17.10;99.90;;;;;;5033328;28;19925;-71
2022/05/07 11:27:29;;;;;;;;;;;17.10;99.90;;;;;;5050133;28;19925;-69
2022/05/07 11:30:13;;;;;;;;;;;17.20;99.90;;;;;;5034622;28;19925;-73
2022/05/07 11:32:39;;;;;;;;;;;17.20;99.90;;;;;;5033677;28;19929;-69
2022/05/07 11:35:05;;;;;;;;;;;17.20;99.90;;;;;;5034533;28;19925;-69
2022/05/07 11:37:41;;;;;;;;;;;17.20;99.90;;;;;;5017151;28;19931;-68
2022/05/07 11:40:08;;;;;;;;;;;17.20;99.90;;;;;;5033406;28;20016;-70
2022/05/07 11:45:44;;;;;;;;;;;17.20;99.90;;;;;;5049924;28;20368;-69
2022/05/07 11:48:09;;;;;;;;;;;17.20;99.90;;;;;;5033129;28;19931;-67
2022/05/07 11:50:41;;;;;;;;;;;17.20;99.90;;;;;;5034019;28;19929;-71
2022/05/07 11:53:09;;;;;;;;;;;17.20;99.90;;;;;;5033943;28;19974;-68
2022/05/07 11:55:35;;;;;;;;;;;17.30;99.90;;;;;;5033099;28;19983;-68
2022/05/07 11:58:12;;;;;;;;;;;17.20;99.90;;;;;;5034026;28;19972;-69
2022/05/07 12:00:40;;;;;;;;;;;17.30;99.90;;;;;;5049607;28;19972;-68
2022/05/07 12:03:06;;;;;;;;;;;17.30;99.90;;;;;;5032976;28;19929;-68
2022/05/07 12:05:39;;;;;;;;;;;17.30;99.90;;;;;;5034363;28;19925;-68
2022/05/07 12:08:11;;;;;;;;;;;17.30;99.90;;;;;;5033989;28;19951;-70
2022/05/07 12:10:37;;;;;;;;;;;17.30;99.90;;;;;;5033064;28;19925;-70
2022/05/07 12:13:02;;;;;;;;;;;17.30;99.90;;;;;;5032566;28;20399;-70
2022/05/07 12:18:12;;;;;;;;;;;17.50;99.90;;;;;;5033756;28;19936;-68
2022/05/07 12:20:38;;;;;;;;;;;17.60;99.90;;;;;;5033899;28;19925;-70
2022/05/07 12:31:26;;;;;;;;;;;17.90;99.90;;;;;;5011718;28;19932;-68
2022/05/07 12:33:52;;;;;;;;;;;18.00;99.90;;;;;;5028398;28;20321;-70
2022/05/07 12:36:17;;;;;;;;;;;18.00;99.90;;;;;;5011632;28;19925;-68
2022/05/07 12:38:43;;;;;;;;;;;18.10;99.90;;;;;;5028287;28;20480;-71
2022/05/07 12:41:09;;;;;;;;;;;18.10;99.90;;;;;;5011592;28;19925;-68
2022/05/07 12:43:34;;;;;;;;;;;18.10;99.90;;;;;;5011587;28;19925;-69
2022/05/07 12:46:00;;;;;;;;;;;18.10;99.90;;;;;;5028154;28;19926;-68
2022/05/07 12:48:26;;;;;;;;;;;18.10;99.90;;;;;;5028188;28;19925;-69
2022/05/07 12:50:52;;;;;;;;;;;18.10;99.90;;;;;;5011517;28;20348;-71
2022/05/07 12:53:17;;;;;;;;;;;18.10;99.90;;;;;;5027925;28;19926;-70
2022/05/07 12:55:43;;;;;;;;;;;18.10;99.90;;;;;;5011465;28;20022;-72
2022/05/07 12:58:11;;;;;;;;;;;18.10;99.90;;;;;;4995090;28;19932;-71
2022/05/07 13:00:37;;;;;;;;;;;18.00;99.90;;;;;;5011292;28;20012;-72
2022/05/07 13:03:02;;;;;;;;;;;18.00;99.90;;;;;;5011032;28;20359;-68
2022/05/07 13:05:29;;;;;;;;;;;17.90;99.90;;;;;;5018707;28;19925;-69
2022/05/07 13:07:55;;;;;;;;;;;17.90;99.90;;;;;;5033043;28;20024;-72
2022/05/07 13:10:21;;;;;;;;;;;17.90;99.90;;;;;;5032194;28;20012;-70
2022/05/07 13:12:46;;;;;;;;;;;17.90;99.90;;;;;;5033259;28;19925;-69
2022/05/07 13:15:12;;;;;;;;;;;17.80;99.90;;;;;;5032179;28;19929;-69
2022/05/07 13:17:38;;;;;;;;;;;17.80;99.90;;;;;;5033031;28;19932;-72
2022/05/07 13:20:03;;;;;;;;;;;17.70;99.90;;;;;;5033278;28;20365;-68
2022/05/07 13:22:32;;;;;;;;;;;17.60;99.90;;;;;;5032976;28;20507;-72
2022/05/07 13:24:57;;;;;;;;;;;17.70;99.90;;;;;;5033266;28;20080;-71
2022/05/07 13:27:23;;;;;;;;;;;17.70;99.90;;;;;;5032975;28;19956;-70
2022/05/07 13:29:49;;;;;;;;;;;17.70;99.90;;;;;;5033012;28;19980;-69
2022/05/07 13:32:14;;;;;;;;;;;17.70;99.90;;;;;;5033339;28;19932;-71
2022/05/07 13:34:41;;;;;;;;;;;17.60;99.90;;;;;;5032894;28;19932;-73
2022/05/07 13:37:08;;;;;;;;;;;17.70;99.90;;;;;;5032262;28;19932;-68
2022/05/07 13:39:33;;;;;;;;;;;17.80;99.90;;;;;;5035990;28;19925;-67
2022/05/07 13:42:00;;;;;;;;;;;17.80;99.90;;;;;;5036982;28;19925;-70
2022/05/07 13:44:26;;;;;;;;;;;17.50;99.90;;;;;;5035975;28;20303;-72
2022/05/07 13:46:52;;;;;;;;;;;17.90;99.90;;;;;;5035434;28;20024;-68
2022/05/07 13:49:17;;;;;;;;;;;17.90;99.90;;;;;;5036634;28;19925;-69
2022/05/07 13:51:43;;;;;;;;;;;17.70;99.90;;;;;;5036721;28;19932;-69
2022/05/07 13:54:08;;;;;;;;;;;17.60;99.90;;;;;;5036822;28;19932;-68
2022/05/07 13:56:34;;;;;;;;;;;17.50;99.90;;;;;;5036300;28;20410;-69
2022/05/07 13:58:59;;;;;;;;;;;17.40;99.90;;;;;;5035796;28;20292;-68
2022/05/07 14:01:25;;;;;;;;;;;17.50;99.90;;;;;;5036468;28;19925;-69
2022/05/07 14:03:51;;;;;;;;;;;17.50;99.90;;;;;;5036431;28;19933;-68
2022/05/07 14:06:19;;;;;;;;;;;17.50;99.90;;;;;;5036431;28;19925;-69
2022/05/07 14:08:46;;;;;;;;;;;16.70;99.90;;;;;;5068217;28;19972;-68
2022/05/07 14:11:12;;;;;;;;;;;17.40;99.90;;;;;;5035305;28;20078;-70
2022/05/07 14:13:37;;;;;;;;;;;17.20;99.90;;;;;;5036307;28;19925;-67
2022/05/07 14:16:03;;;;;;;;;;;17.20;99.90;;;;;;5036139;28;20426;-68
2022/05/07 14:18:29;;;;;;;;;;;17.10;99.90;;;;;;5035897;28;19965;-69
2022/05/07 14:20:56;;;;;;;;;;;17.00;99.90;;;;;;5036045;28;19932;-68
2022/05/07 14:23:22;;;;;;;;;;;16.90;99.90;;;;;;5035052;28;20104;-68
2022/05/07 14:25:48;;;;;;;;;;;16.90;99.90;;;;;;5035886;28;20016;-72
2022/05/07 14:28:13;;;;;;;;;;;16.90;99.90;;;;;;5034977;28;19951;-70
2022/05/07 14:31:00;;;;;;;;;;;16.80;99.90;;;;;;5036045;28;19971;-68
2022/05/07 14:33:26;;;;;;;;;;;16.80;99.90;;;;;;5035923;28;19925;-71
2022/05/07 14:35:52;;;;;;;;;;;16.80;99.90;;;;;;5035870;28;19936;-68
2022/05/07 14:38:18;;;;;;;;;;;16.80;99.90;;;;;;5035766;28;20380;-67
2022/05/07 14:40:47;;;;;;;;;;;16.80;99.90;;;;;;5035575;28;19932;-68
2022/05/07 14:43:12;;;;;;;;;;;16.50;99.90;;;;;;5035930;28;19951;-69
2022/05/07 14:45:38;;;;;;;;;;;16.80;99.90;;;;;;5035655;28;20385;-68
2022/05/07 14:48:04;;;;;;;;;;;16.80;99.90;;;;;;5035453;28;19925;-67
2022/05/07 14:50:29;;;;;;;;;;;16.80;99.90;;;;;;5035607;28;20040;-68
2022/05/07 14:52:56;;;;;;;;;;;16.90;99.90;;;;;;5035285;28;19925;-69
2022/05/07 14:55:21;;;;;;;;;;;16.90;99.90;;;;;;5035290;28;20304;-68
2022/05/07 14:57:47;;;;;;;;;;;17.00;99.90;;;;;;5035445;28;19929;-71